Time,TemperatureF,DewpointF,PressureIn,WindDirection,WindDirectionDegrees,WindSpeedMPH,WindSpeedGustMPH,Humidity,HourlyPrecipIn,Conditions,Clouds,dailyrainin,SoftwareType,DateUTC
2013-06-11 02:38:00,63.1,62.2,29.95,WSW,248,0.0,7.0,97,0.00,,,0.00,Wunderground v.1.15,2013-06-11 07:38:00,
2013-06-11 02:39:00,63.1,62.2,29.95,WSW,248,0.0,7.0,97,0.00,,,0.00,Wunderground v.1.15,2013-06-11 07:39:00,
2013-06-11 02:41:00,63.1,61.9,29.95,WSW,248,0.0,7.0,96,0.00,,,0.00,Wunderground v.1.15,2013-06-11 07:41:00,
2013-06-11 02:44:00,63.0,61.8,29.95,WSW,248,0.0,7.0,96,0.00,,,0.00,Wunderground v.1.15,2013-06-11 07:44:00,
2013-06-11 02:45:00,63.0,61.8,29.95,WSW,248,0.0,7.0,96,0.00,,,0.00,Wunderground v.1.15,2013-06-11 07:45:00,
2013-06-11 02:50:00,62.9,61.7,29.95,WSW,248,0.0,7.0,96,0.00,,,0.00,Wunderground v.1.15,2013-06-11 07:50:00,
2013-06-11 02:56:00,62.7,61.5,29.95,WSW,248,0.0,7.0,96,0.00,,,0.00,Wunderground v.1.15,2013-06-11 07:56:00,
2013-06-11 03:01:00,62.7,61.5,29.95,WSW,248,0.0,0.0,96,0.00,,,0.00,Wunderground v.1.15,2013-06-11 08:01:00,
2013-06-11 03:07:00,62.5,61.3,29.95,WSW,248,0.0,0.0,96,0.00,,,0.00,Wunderground v.1.15,2013-06-11 08:07:00,
2013-06-11 03:12:00,62.4,61.2,29.95,WSW,248,0.0,0.0,96,0.00,,,0.00,Wunderground v.1.15,2013-06-11 08:12:00,
2013-06-11 03:17:00,62.3,61.1,29.95,WSW,248,0.0,0.0,96,0.00,,,0.00,Wunderground v.1.15,2013-06-11 08:17:00,
2013-06-11 08:02:00,74.4,69.6,30.02,ENE,62,0.0,1.0,85,0.00,,,0.01,Wunderground v.1.15,2013-06-11 13:02:00,
2013-06-11 08:07:00,75.0,69.5,30.02,NE,46,0.0,2.0,83,0.00,,,0.01,Wunderground v.1.15,2013-06-11 13:07:00,
2013-06-11 08:12:00,75.5,69.3,30.02,NE,53,0.0,2.0,81,0.00,,,0.01,Wunderground v.1.15,2013-06-11 13:12:00,
2013-06-11 08:18:00,75.9,69.6,30.02,ENE,73,0.0,2.0,81,0.00,,,0.01,Wunderground v.1.15,2013-06-11 13:18:00,
2013-06-11 08:23:00,76.4,69.8,30.02,ENE,73,0.0,0.0,80,0.00,,,0.01,Wunderground v.1.15,2013-06-11 13:23:00,
2013-06-11 08:29:00,77.0,70.4,30.02,East,82,0.0,0.0,80,0.00,,,0.01,Wunderground v.1.15,2013-06-11 13:29:00,
2013-06-11 08:34:00,77.4,70.0,30.02,ESE,111,0.0,1.0,78,0.00,,,0.01,Wunderground v.1.15,2013-06-11 13:34:00,
2013-06-11 08:40:00,77.0,70.4,30.02,SE,128,0.0,1.0,80,0.00,,,0.01,Wunderground v.1.15,2013-06-11 13:40:00,
2013-06-11 08:45:00,77.3,69.9,30.02,SE,128,0.0,0.0,78,0.00,,,0.01,Wunderground v.1.15,2013-06-11 13:45:00,
2013-06-11 08:50:00,77.6,70.2,30.02,SW,215,0.0,3.0,78,0.00,,,0.01,Wunderground v.1.15,2013-06-11 13:50:00,
2013-06-11 08:55:00,77.8,70.4,30.02,SW,225,0.0,1.0,78,0.00,,,0.01,Wunderground v.1.15,2013-06-11 13:55:00,
2013-06-11 09:00:00,78.2,70.0,30.02,South,172,1.0,1.0,76,0.00,,,0.01,Wunderground v.1.15,2013-06-11 14:00:00,
2013-06-11 09:06:00,78.7,69.7,30.02,SE,132,1.0,1.0,74,0.00,,,0.01,Wunderground v.1.15,2013-06-11 14:06:00,
2013-06-11 09:12:00,79.4,69.6,30.01,South,171,1.0,1.0,72,0.00,,,0.01,Wunderground v.1.15,2013-06-11 14:12:00,
2013-06-11 09:17:00,79.7,68.2,30.01,ESE,123,1.0,2.0,68,0.00,,,0.01,Wunderground v.1.15,2013-06-11 14:17:00,
2013-06-11 09:23:00,80.0,69.3,30.01,SSW,211,1.0,2.0,70,0.00,,,0.01,Wunderground v.1.15,2013-06-11 14:23:00,
2013-06-11 09:29:00,80.0,68.9,30.01,SE,141,1.0,2.0,69,0.00,,,0.01,Wunderground v.1.15,2013-06-11 14:29:00,
2013-06-11 09:34:00,80.2,68.2,30.01,South,182,1.0,1.0,67,0.00,,,0.01,Wunderground v.1.15,2013-06-11 14:34:00,
2013-06-11 09:39:00,80.3,69.2,30.01,South,184,1.0,2.0,69,0.00,,,0.01,Wunderground v.1.15,2013-06-11 14:39:00,
2013-06-11 09:44:00,80.5,69.0,30.01,South,184,1.0,1.0,68,0.00,,,0.01,Wunderground v.1.15,2013-06-11 14:44:00,
2013-06-11 09:50:00,80.6,68.2,30.01,SW,236,1.0,1.0,66,0.00,,,0.01,Wunderground v.1.15,2013-06-11 14:50:00,
2013-06-11 09:55:00,80.5,69.8,30.01,WSW,250,1.0,3.0,70,0.00,,,0.01,Wunderground v.1.15,2013-06-11 14:55:00,
2013-06-11 10:00:00,80.2,69.5,30.01,WSW,248,1.0,1.0,70,0.00,,,0.01,Wunderground v.1.15,2013-06-11 15:00:00,
2013-06-11 10:06:00,80.5,69.4,30.01,WSW,238,1.0,4.0,69,0.00,,,0.01,Wunderground v.1.15,2013-06-11 15:06:00,
2013-06-11 10:54:00,82.0,70.0,30.02,SW,227,2.0,2.0,67,0.00,,,0.01,Wunderground v.1.15,2013-06-11 15:54:00,
2013-06-11 11:00:00,82.1,69.6,30.02,SSW,210,2.0,2.0,66,0.00,,,0.01,Wunderground v.1.15,2013-06-11 16:00:00,
2013-06-11 11:06:00,82.2,68.3,30.02,WSW,243,2.0,4.0,63,0.00,,,0.01,Wunderground v.1.15,2013-06-11 16:06:00,
2013-06-11 11:11:00,82.4,68.5,30.02,SW,231,1.0,2.0,63,0.00,,,0.01,Wunderground v.1.15,2013-06-11 16:11:00,
2013-06-11 11:17:00,83.1,70.1,30.02,SW,231,1.0,2.0,65,0.00,,,0.01,Wunderground v.1.15,2013-06-11 16:17:00,
2013-06-11 11:23:00,83.3,70.3,30.02,SW,217,1.0,3.0,65,0.00,,,0.01,Wunderground v.1.15,2013-06-11 16:23:00,
2013-06-11 11:28:00,83.3,69.8,30.02,WSW,249,2.0,3.0,64,0.00,,,0.01,Wunderground v.1.15,2013-06-11 16:28:00,
2013-06-11 11:34:00,83.2,66.9,30.02,SW,216,3.0,3.0,58,0.00,,,0.01,Wunderground v.1.15,2013-06-11 16:34:00,
2013-06-11 11:39:00,83.6,71.0,30.02,SW,216,1.0,3.0,66,0.00,,,0.01,Wunderground v.1.15,2013-06-11 16:39:00,
2013-06-11 12:13:00,84.6,68.2,30.02,West,279,2.0,4.0,58,0.00,,,0.01,Wunderground v.1.15,2013-06-11 17:13:00,
2013-06-11 12:18:00,84.8,68.9,30.02,WSW,257,3.0,4.0,59,0.00,,,0.01,Wunderground v.1.15,2013-06-11 17:18:00,
2013-06-11 12:23:00,84.8,68.9,30.01,West,262,3.0,3.0,59,0.00,,,0.01,Wunderground v.1.15,2013-06-11 17:23:00,
2013-06-11 12:28:00,84.8,66.8,30.01,West,259,3.0,3.0,55,0.00,,,0.01,Wunderground v.1.15,2013-06-11 17:28:00,
2013-06-11 12:34:00,85.1,69.2,30.01,South,189,2.0,3.0,59,0.00,,,0.01,Wunderground v.1.15,2013-06-11 17:34:00,
2013-06-11 12:40:00,85.4,71.4,30.00,SSW,202,2.0,4.0,63,0.00,,,0.01,Wunderground v.1.15,2013-06-11 17:40:00,
2013-06-11 12:45:00,85.7,69.7,30.01,SSW,202,1.0,3.0,59,0.00,,,0.01,Wunderground v.1.15,2013-06-11 17:45:00,
2013-06-11 12:50:00,85.7,70.7,30.00,WSW,243,2.0,5.0,61,0.00,,,0.01,Wunderground v.1.15,2013-06-11 17:50:00,
2013-06-11 12:56:00,85.7,69.2,30.00,WSW,241,3.0,4.0,58,0.00,,,0.01,Wunderground v.1.15,2013-06-11 17:56:00,
2013-06-11 13:01:00,85.9,72.3,30.00,West,267,3.0,4.0,64,0.00,,,0.01,Wunderground v.1.15,2013-06-11 18:01:00,
2013-06-11 13:06:00,85.9,70.4,30.00,WSW,243,2.0,4.0,60,0.00,,,0.01,Wunderground v.1.15,2013-06-11 18:06:00,
2013-06-11 13:11:00,85.9,68.4,30.00,West,262,2.0,2.0,56,0.00,,,0.01,Wunderground v.1.15,2013-06-11 18:11:00,
2013-06-11 13:17:00,86.3,70.8,30.00,WSW,246,2.0,3.0,60,0.00,,,0.01,Wunderground v.1.15,2013-06-11 18:17:00,
2013-06-11 13:22:00,86.5,71.9,30.00,SW,223,3.0,6.0,62,0.00,,,0.01,Wunderground v.1.15,2013-06-11 18:22:00,
2013-06-11 13:28:00,86.3,70.8,29.99,West,262,4.0,6.0,60,0.00,,,0.01,Wunderground v.1.15,2013-06-11 18:28:00,
2013-06-11 13:34:00,86.5,70.0,29.99,WSW,253,3.0,4.0,58,0.00,,,0.01,Wunderground v.1.15,2013-06-11 18:34:00,
2013-06-11 13:39:00,86.8,70.8,29.99,West,265,3.0,5.0,59,0.00,,,0.01,Wunderground v.1.15,2013-06-11 18:39:00,
2013-06-11 13:45:00,86.9,72.3,29.99,WSW,258,3.0,6.0,62,0.00,,,0.01,Wunderground v.1.15,2013-06-11 18:45:00,
2013-06-11 13:51:00,87.3,73.2,29.99,WSW,246,4.0,4.0,63,0.00,,,0.01,Wunderground v.1.15,2013-06-11 18:51:00,
2013-06-11 13:56:00,87.5,72.9,29.99,WSW,245,3.0,4.0,62,0.00,,,0.01,Wunderground v.1.15,2013-06-11 18:56:00,
2013-06-11 14:02:00,87.7,72.1,29.98,West,267,2.0,5.0,60,0.00,,,0.01,Wunderground v.1.15,2013-06-11 19:02:00,
2013-06-11 14:07:00,87.5,72.9,29.98,WSW,250,3.0,5.0,62,0.00,,,0.01,Wunderground v.1.15,2013-06-11 19:07:00,
2013-06-11 14:12:00,87.7,73.1,29.98,WSW,258,4.0,4.0,62,0.00,,,0.01,Wunderground v.1.15,2013-06-11 19:12:00,
2013-06-11 14:17:00,87.9,73.3,29.98,WSW,247,3.0,6.0,62,0.00,,,0.01,Wunderground v.1.15,2013-06-11 19:17:00,
2013-06-11 14:22:00,87.6,73.0,29.98,WSW,254,5.0,6.0,62,0.00,,,0.01,Wunderground v.1.15,2013-06-11 19:22:00,
2013-06-11 14:27:00,87.6,73.0,29.98,West,271,5.0,6.0,62,0.00,,,0.01,Wunderground v.1.15,2013-06-11 19:27:00,
2013-06-11 14:32:00,87.7,72.6,29.97,West,259,4.0,4.0,61,0.00,,,0.01,Wunderground v.1.15,2013-06-11 19:32:00,
2013-06-11 14:37:00,88.1,73.4,29.97,SW,234,3.0,4.0,62,0.00,,,0.01,Wunderground v.1.15,2013-06-11 19:37:00,
2013-06-11 14:43:00,88.4,72.7,29.97,WSW,257,3.0,6.0,60,0.00,,,0.01,Wunderground v.1.15,2013-06-11 19:43:00,
2013-06-11 14:48:00,88.4,75.1,29.97,SW,236,4.0,6.0,65,0.00,,,0.01,Wunderground v.1.15,2013-06-11 19:48:00,
2013-06-11 14:53:00,88.6,72.4,29.97,West,269,3.0,4.0,59,0.00,,,0.01,Wunderground v.1.15,2013-06-11 19:53:00,
2013-06-11 14:58:00,88.8,74.6,29.96,WSW,241,3.0,4.0,63,0.00,,,0.01,Wunderground v.1.15,2013-06-11 19:58:00,
2013-06-11 15:04:00,88.9,75.1,29.96,West,260,3.0,5.0,64,0.00,,,0.01,Wunderground v.1.15,2013-06-11 20:04:00,
2013-06-11 15:09:00,88.8,73.6,29.96,West,273,4.0,6.0,61,0.00,,,0.01,Wunderground v.1.15,2013-06-11 20:09:00,
2013-06-11 15:14:00,88.6,74.4,29.96,West,265,5.0,8.0,63,0.00,,,0.01,Wunderground v.1.15,2013-06-11 20:14:00,
2013-06-11 15:20:00,88.8,76.0,29.96,West,265,4.0,4.0,66,0.00,,,0.01,Wunderground v.1.15,2013-06-11 20:20:00,
2013-06-11 15:25:00,88.9,74.2,29.96,West,267,4.0,7.0,62,0.00,,,0.01,Wunderground v.1.15,2013-06-11 20:25:00,
2013-06-11 15:31:00,89.0,75.2,29.96,West,268,4.0,4.0,64,0.00,,,0.01,Wunderground v.1.15,2013-06-11 20:31:00,
2013-06-11 15:36:00,89.2,73.5,29.96,WSW,252,4.0,5.0,60,0.00,,,0.01,Wunderground v.1.15,2013-06-11 20:36:00,
2013-06-11 15:42:00,89.3,74.1,29.96,West,263,4.0,6.0,61,0.00,,,0.01,Wunderground v.1.15,2013-06-11 20:42:00,
2013-06-11 15:47:00,89.3,74.1,29.96,WSW,247,4.0,6.0,61,0.00,,,0.01,Wunderground v.1.15,2013-06-11 20:47:00,
2013-06-11 15:53:00,89.3,74.6,29.96,SW,232,4.0,4.0,62,0.00,,,0.01,Wunderground v.1.15,2013-06-11 20:53:00,
2013-06-11 15:59:00,89.4,75.6,29.96,WSW,254,4.0,4.0,64,0.00,,,0.01,Wunderground v.1.15,2013-06-11 20:59:00,
2013-06-11 16:04:00,89.3,75.0,29.95,West,267,4.0,5.0,63,0.00,,,0.01,Wunderground v.1.15,2013-06-11 21:04:00,
2013-06-11 16:09:00,89.6,73.9,29.95,West,279,3.0,5.0,60,0.00,,,0.01,Wunderground v.1.15,2013-06-11 21:09:00,
2013-06-11 16:15:00,89.8,76.0,29.95,WSW,241,3.0,5.0,64,0.00,,,0.01,Wunderground v.1.15,2013-06-11 21:15:00,
2013-06-11 16:20:00,89.9,75.1,29.95,WSW,248,3.0,5.0,62,0.00,,,0.01,Wunderground v.1.15,2013-06-11 21:20:00,
2013-06-11 16:25:00,89.7,75.9,29.95,West,261,4.0,5.0,64,0.00,,,0.01,Wunderground v.1.15,2013-06-11 21:25:00,
2013-06-11 16:32:00,89.7,75.4,29.95,WSW,246,4.0,4.0,63,0.00,,,0.01,Wunderground v.1.15,2013-06-11 21:32:00,
2013-06-11 16:38:00,89.8,76.9,29.95,WSW,257,3.0,4.0,66,0.00,,,0.01,Wunderground v.1.15,2013-06-11 21:38:00,
2013-06-11 16:43:00,89.8,75.5,29.95,West,266,3.0,8.0,63,0.00,,,0.01,Wunderground v.1.15,2013-06-11 21:43:00,
2013-06-11 16:49:00,89.3,76.4,29.95,West,261,4.0,8.0,66,0.00,,,0.01,Wunderground v.1.15,2013-06-11 21:49:00,
2013-06-11 16:54:00,89.5,76.2,29.95,WSW,254,4.0,6.0,65,0.00,,,0.01,Wunderground v.1.15,2013-06-11 21:54:00,
2013-06-11 16:59:00,89.5,76.6,29.95,West,259,5.0,8.0,66,0.00,,,0.01,Wunderground v.1.15,2013-06-11 21:59:00,
2013-06-11 17:05:00,89.7,75.9,29.95,WSW,257,5.0,8.0,64,0.00,,,0.01,Wunderground v.1.15,2013-06-11 22:05:00,
2013-06-11 17:10:00,89.5,75.7,29.96,West,259,5.0,6.0,64,0.00,,,0.01,Wunderground v.1.15,2013-06-11 22:10:00,
2013-06-11 17:15:00,89.1,75.3,29.95,West,269,5.0,6.0,64,0.00,,,0.01,Wunderground v.1.15,2013-06-11 22:15:00,
2013-06-11 17:20:00,89.1,76.3,29.96,WSW,248,4.0,4.0,66,0.00,,,0.01,Wunderground v.1.15,2013-06-11 22:20:00,
2013-06-11 17:50:00,88.6,77.6,29.95,West,262,2.0,2.0,70,0.00,,,0.01,Wunderground v.1.15,2013-06-11 22:50:00,
2013-06-11 17:56:00,88.5,77.0,29.95,West,262,1.0,2.0,69,0.00,,,0.01,Wunderground v.1.15,2013-06-11 22:56:00,
2013-06-11 18:02:00,88.4,77.8,29.95,West,262,1.0,1.0,71,0.00,,,0.01,Wunderground v.1.15,2013-06-11 23:02:00,
2013-06-11 18:07:00,88.3,77.7,29.95,West,262,1.0,3.0,71,0.00,,,0.01,Wunderground v.1.15,2013-06-11 23:07:00,
2013-06-11 18:12:00,88.2,77.2,29.95,SW,224,1.0,2.0,70,0.00,,,0.01,Wunderground v.1.15,2013-06-11 23:12:00,
2013-06-11 18:17:00,88.0,77.4,29.94,WSW,254,2.0,3.0,71,0.00,,,0.01,Wunderground v.1.15,2013-06-11 23:17:00,
2013-06-11 18:23:00,87.7,78.4,29.94,WSW,248,1.0,2.0,74,0.00,,,0.01,Wunderground v.1.15,2013-06-11 23:23:00,
2013-06-11 18:28:00,87.4,77.3,29.94,WSW,252,1.0,3.0,72,0.00,,,0.01,Wunderground v.1.15,2013-06-11 23:28:00,
2013-06-11 18:33:00,87.1,77.8,29.94,WSW,258,1.0,1.0,74,0.00,,,0.01,Wunderground v.1.15,2013-06-11 23:33:00,
2013-06-11 18:38:00,86.8,77.9,29.94,WSW,258,1.0,1.0,75,0.00,,,0.01,Wunderground v.1.15,2013-06-11 23:38:00,